Latest Weather Observations for Lameroo AWS

IDS60801

Issued at 11:31 pm CDT Saturday 31 January 2015 (issued every 30 minutes, with the page automatically refreshed every 10 minutes)

About weather observations | Map of weather stations | Latest weather observations for SA | Other Formats
Station Details ID: 025562 Name: AUSTIN PLAINS Lat: -35.38 Lon: 140.54 Height: 110.08 m
Data from the previous 72 hours. | See also: Recent months at Lameroo AWS
Date/Time
CDT
Temp
°C
App
Temp
°C
Dew
Point
Rel
Hum
%
Delta-T
°C
Wind Press
QNH
hPa
Press
MSL
hPa
Rain
since 9 am
mm
Dir
 
Spd
km/h
Gust
km/h
Spd
kts
Gust
kts
31/11:30pm 15.0 9.7 6.6 57 4.1 S 24 32 13 17 1015.0 1014.5 0.0
31/11:00pm 16.0 9.5 6.4 53 4.7 S 30 39 16 21 1015.0 1014.5 0.0
31/10:30pm 16.8 10.3 6.3 50 5.2 S 30 41 16 22 1014.8 1014.3 0.0
31/10:00pm 17.7 11.1 5.9 46 5.8 S 30 41 16 22 1014.5 1014.0 0.0
31/09:30pm 18.6 12.4 6.1 44 6.2 S 28 37 15 20 1014.1 1013.6 0.0
31/09:00pm 19.7 14.2 5.7 40 6.9 S 24 33 13 18 1013.6 1013.2 0.0
31/08:30pm 20.2 14.6 5.4 38 7.3 S 24 32 13 17 1013.4 1013.0 0.0
31/08:00pm 20.9 13.5 4.9 35 7.9 S 33 39 18 21 1013.2 1012.8 0.0
31/07:30pm 22.0 15.0 5.8 35 8.2 S 32 41 17 22 1012.9 1012.5 0.0
31/07:00pm 22.6 16.0 6.0 34 8.4 S 30 39 16 21 1012.5 1012.1 0.0
31/06:30pm 24.7 18.7 5.5 29 9.8 S 26 37 14 20 1012.1 1011.7 0.0
31/06:00pm 24.6 18.5 4.9 28 9.9 S 26 35 14 19 1012.0 1011.6 0.0
31/05:30pm 25.0 18.7 5.7 29 9.9 SSE 28 44 15 24 1012.0 1011.6 0.0
31/05:00pm 25.3 19.3 5.5 28 10.1 S 26 35 14 19 1012.1 1011.7 0.0
31/04:30pm 24.9 18.9 5.2 28 10.0 SSE 26 35 14 19 1012.5 1012.1 0.0
31/04:00pm 24.3 18.6 5.1 29 9.7 S 24 32 13 17 1012.5 1012.1 0.0
31/03:30pm 24.6 19.1 5.9 30 9.6 S 24 39 13 21 1012.6 1012.2 0.0
31/03:00pm 24.3 19.0 6.6 32 9.2 S 24 39 13 21 1013.0 1012.6 0.0
31/02:30pm 24.1 18.2 5.9 31 9.3 S 26 37 14 20 1013.2 1012.8 0.0
31/02:00pm 23.6 18.5 6.0 32 9.0 S 22 37 12 20 1013.8 1013.3 0.0
31/01:30pm 22.9 17.9 6.6 35 8.4 SSW 22 43 12 23 1013.9 1013.4 0.0
31/01:00pm 22.5 17.3 7.1 37 8.0 S 24 43 13 23 1014.1 1013.6 0.0
31/12:30pm 22.1 17.5 6.7 37 7.9 SSE 20 28 11 15 1014.6 1014.1 0.0
31/12:00pm 21.1 16.8 7.7 42 7.0 SSE 20 33 11 18 1015.0 1014.5 0.0
31/11:30am 20.4 16.1 7.7 44 6.6 S 20 33 11 18 1015.3 1014.8 0.0
31/11:00am 19.6 16.1 7.4 45 6.2 S 15 24 8 13 1015.7 1015.2 0.0
31/10:30am 19.0 15.7 8.1 49 5.6 S 15 26 8 14 1015.7 1015.2 0.0
31/10:00am 18.5 14.9 8.5 52 5.2 SE 17 24 9 13 1015.6 1015.1 0.0
31/09:30am 17.7 13.7 9.1 57 4.5 SSE 20 30 11 16 1015.5 1015.0 0.0
31/09:00am 16.2 11.9 9.4 64 3.5 SSE 22 30 12 16 1015.5 1015.0 0.0
31/08:30am 15.1 11.9 9.9 71 2.7 S 17 24 9 13 1015.8 1015.3 0.0
31/08:00am 13.4 10.0 9.3 76 2.1 S 17 24 9 13 1015.3 1014.8 0.0
31/07:30am 10.9 8.0 8.1 83 1.4 S 13 17 7 9 1015.0 1014.5 0.0
31/07:00am 9.6 7.0 7.7 88 0.9 S 11 15 6 8 1014.8 1014.3 0.0
31/06:30am 8.0 5.0 6.0 87 0.9 SSW 11 13 6 7 1014.3 1013.8 0.0
31/06:00am 8.8 5.5 6.6 86 1.0 S 13 15 7 8 1014.0 1013.5 0.0
31/05:30am 8.9 5.6 6.3 84 1.2 S 13 15 7 8 1013.8 1013.3 0.0
31/05:00am 10.5 7.4 7.4 81 1.5 S 13 17 7 9 1013.8 1013.3 0.0
31/04:30am 11.4 7.9 7.3 76 2.0 SSE 15 19 8 10 1013.6 1013.2 0.0
31/04:00am 11.8 8.3 7.1 73 2.3 S 15 19 8 10 1013.6 1013.2 0.0
31/03:30am 12.3 8.3 6.8 69 2.6 SSE 17 20 9 11 1013.8 1013.3 0.0
31/03:00am 12.8 8.8 6.8 67 2.9 SSE 17 20 9 11 1013.5 1013.1 0.0
31/02:30am 13.3 9.3 6.6 64 3.2 SSE 17 20 9 11 1013.4 1013.0 0.0
31/02:00am 13.9 9.5 6.7 62 3.5 SSE 19 22 10 12 1013.4 1013.0 0.0
31/01:30am 14.5 10.0 7.1 61 3.6 SSE 20 24 11 13 1013.4 1013.0 0.0
31/01:00am 15.0 10.6 7.3 60 3.8 SSE 20 24 11 13 1013.6 1013.2 0.0
31/12:30am 15.6 10.9 7.6 59 4.0 SSE 22 30 12 16 1013.5 1013.1 0.0
31/12:00am 16.2 11.1 7.7 57 4.3 SSE 24 32 13 17 1013.5 1013.1 0.0
 
Date/Time
CDT
Temp
°C
App
Temp
°C
Dew
Point
Rel
Hum
%
Delta-T
°C
Wind Press
QNH
hPa
Press
MSL
hPa
Rain
since 9 am
mm
Dir
 
Spd
km/h
Gust
km/h
Spd
kts
Gust
kts
30/11:30pm 16.7 11.3 7.9 56 4.5 S 26 32 14 17 1013.6 1013.2 0.0
30/11:00pm 17.7 11.5 8.0 53 5.0 S 30 43 16 23 1013.6 1013.2 0.0
30/10:30pm 18.1 12.3 7.8 51 5.3 S 28 33 15 18 1013.5 1013.1 0.0
30/10:00pm 18.7 12.8 7.5 48 5.7 SSW 28 35 15 19 1013.3 1012.9 0.0
30/09:30pm 19.5 14.1 7.9 47 6.0 SSW 26 35 14 19 1013.2 1012.8 0.0
30/09:00pm 20.2 15.4 8.8 48 6.0 SSW 24 33 13 18 1012.9 1012.5 0.0
30/08:30pm 21.1 15.6 7.7 42 7.0 SSW 26 33 14 18 1012.6 1012.2 0.0
30/08:00pm 22.5 16.0 6.7 36 8.1 SSW 30 37 16 20 1012.2 1011.8 0.0
30/07:30pm 24.6 18.1 4.9 28 10.0 SSW 28 35 15 19 1011.9 1011.5 0.0
30/07:00pm 26.1 21.1 1.4 20 11.8 S 17 28 9 15 1011.7 1011.3 0.0
30/06:30pm 25.9 20.5 1.2 20 11.8 SSE 19 32 10 17 1011.7 1011.3 0.0
30/06:00pm 26.7 21.7 1.2 19 12.2 SSE 17 22 9 12 1011.9 1011.5 0.0
30/05:30pm 26.6 21.9 1.1 19 12.2 SSW 15 32 8 17 1012.1 1011.7 0.0
30/05:00pm 26.4 21.5 1.7 20 11.9 SSE 17 35 9 19 1012.2 1011.8 0.0
30/04:30pm 26.0 20.9 0.6 19 12.0 SSE 17 32 9 17 1012.6 1012.2 0.0
30/04:00pm 26.9 21.8 0.6 18 12.5 S 17 28 9 15 1012.9 1012.5 0.0
30/03:30pm 26.4 20.8 0.9 19 12.1 S 20 30 11 16 1013.2 1012.8 0.0
30/03:00pm 25.7 20.4 1.8 21 11.5 SE 19 30 10 16 1013.5 1013.1 0.0
30/02:30pm 25.2 20.9 1.3 21 11.3 S 13 22 7 12 1013.9 1013.4 0.0
30/02:00pm 24.8 21.0 1.7 22 11.0 ESE 11 24 6 13 1014.4 1013.9 0.0
30/01:30pm 24.4 19.7 0.7 21 11.0 SE 15 30 8 16 1014.9 1014.4 0.0
30/01:00pm 24.2 20.2 2.9 25 10.3 SE 13 28 7 15 1015.2 1014.7 0.0
30/12:30pm 23.1 18.8 3.1 27 9.7 SE 15 33 8 18 1015.8 1015.3 0.0
30/12:00pm 21.9 18.7 3.1 29 9.0 SE 9 20 5 11 1016.1 1015.6 0.0
30/11:30am 21.9 17.9 4.9 33 8.4 SE 15 26 8 14 1016.5 1016.0 0.0
30/11:00am 20.9 17.2 4.5 34 8.0 ESE 13 20 7 11 1016.9 1016.4 0.0
30/10:30am 20.5 16.7 5.7 38 7.4 ESE 15 24 8 13 1017.2 1016.7 0.0
30/10:00am 19.4 15.7 6.2 42 6.6 ESE 15 22 8 12 1017.1 1016.6 0.0
30/09:30am 18.3 13.7 6.5 46 5.9 ESE 20 24 11 13 1017.1 1016.6 0.0
30/09:00am 16.7 11.5 7.1 53 4.8 ESE 24 30 13 16 1017.3 1016.8 0.0
30/08:30am 15.9 11.1 7.4 57 4.2 SE 22 30 12 16 1017.4 1016.9 0.0
30/08:00am 14.4 9.6 7.5 63 3.4 SE 22 28 12 15 1017.2 1016.7 0.0
30/07:30am 12.4 8.0 6.5 67 2.8 SSE 19 22 10 12 1017.1 1016.6 0.0
30/07:00am 11.0 7.2 6.0 71 2.3 S 15 17 8 9 1016.7 1016.2 0.0
30/06:30am 10.4 6.6 5.6 72 2.2 SSE 15 17 8 9 1016.4 1015.9 0.0
30/06:00am 10.8 7.3 5.6 70 2.4 SSE 13 15 7 8 1016.1 1015.6 0.0
30/05:30am 11.6 7.8 5.9 68 2.7 SSE 15 17 8 9 1015.8 1015.3 0.0
30/05:00am 11.9 8.0 5.5 65 3.0 SSE 15 17 8 9 1015.5 1015.0 0.0
30/04:30am 12.4 8.4 5.1 61 3.4 SE 15 19 8 10 1015.3 1014.8 0.0
30/04:00am 13.2 9.2 5.1 58 3.8 SE 15 19 8 10 1015.4 1014.9 0.0
30/03:30am 14.3 9.6 5.1 54 4.3 SE 19 24 10 13 1015.4 1014.9 0.0
30/03:00am 14.7 9.9 4.7 51 4.7 SE 19 20 10 11 1015.5 1015.0 0.0
30/02:30am 15.6 10.6 4.6 48 5.2 ESE 20 24 11 13 1015.5 1015.0 0.0
30/02:00am 16.5 10.6 3.9 43 5.9 ESE 24 28 13 15 1015.4 1014.9 0.0
30/01:30am 17.3 10.9 3.2 39 6.5 ESE 26 33 14 18 1015.3 1014.8 0.0
30/01:00am 17.7 11.6 2.5 36 7.0 ESE 24 30 13 16 1015.4 1014.9 0.0
30/12:30am 17.9 12.5 2.6 36 7.0 SE 20 26 11 14 1015.4 1014.9 0.0
30/12:00am 18.6 12.2 3.3 36 7.2 SE 26 30 14 16 1015.4 1014.9 0.0
 
Date/Time
CDT
Temp
°C
App
Temp
°C
Dew
Point
Rel
Hum
%
Delta-T
°C
Wind Press
QNH
hPa
Press
MSL
hPa
Rain
since 9 am
mm
Dir
 
Spd
km/h
Gust
km/h
Spd
kts
Gust
kts
29/11:30pm 19.4 13.9 4.0 36 7.4 SE 22 28 12 15 1015.4 1014.9 0.0
29/11:00pm 19.1 14.2 4.1 37 7.2 SE 19 22 10 12 1015.6 1015.1 0.0
29/10:30pm 19.6 14.7 4.1 36 7.4 SE 19 20 10 11 1015.5 1015.0 0.0
29/10:00pm 19.7 15.3 4.6 37 7.3 SSE 17 20 9 11 1015.4 1014.9 0.0
29/09:30pm 20.0 15.8 3.7 34 7.8 SSE 15 17 8 9 1015.2 1014.7 0.0
29/09:00pm 21.7 17.4 3.4 30 8.8 SSE 15 17 8 9 1014.9 1014.4 0.0
29/08:30pm 23.6 18.9 3.0 26 10.0 SE 17 20 9 11 1014.6 1014.1 0.0
29/08:00pm 25.8 19.7 2.5 22 11.3 SE 24 30 13 16 1014.4 1013.9 0.0
29/07:30pm 26.7 21.0 2.6 21 11.8 SE 22 30 12 16 1014.1 1013.6 0.0
29/07:00pm 27.1 20.5 2.2 20 12.2 SE 26 33 14 18 1014.0 1013.5 0.0
29/06:30pm 27.7 21.5 2.0 19 12.6 SSE 24 35 13 19 1013.9 1013.4 0.0
29/06:00pm 27.8 20.7 1.3 18 12.8 SE 28 37 15 20 1014.0 1013.5 0.0
29/05:30pm 28.1 21.4 1.6 18 12.9 SE 26 41 14 22 1014.1 1013.6 0.0
29/05:00pm 27.9 21.4 0.6 17 13.0 SE 24 37 13 20 1014.4 1013.9 0.0
29/04:30pm 27.6 20.4 0.4 17 12.9 SE 28 43 15 23 1014.6 1014.1 0.0
29/04:00pm 27.8 20.7 1.3 18 12.8 SE 28 44 15 24 1015.1 1014.6 0.0
29/03:30pm 28.1 21.5 2.3 19 12.7 SE 26 43 14 23 1015.4 1014.9 0.0
29/03:00pm 27.4 20.2 1.0 18 12.6 SE 28 39 15 21 1015.7 1015.2 0.0
29/02:30pm 26.8 20.7 0.5 18 12.4 SE 22 39 12 21 1016.0 1015.5 0.0
29/02:00pm 25.6 18.8 1.0 20 11.6 SE 26 41 14 22 1016.6 1016.1 0.0
29/01:30pm 25.5 18.4 1.6 21 11.4 SE 28 39 15 21 1016.8 1016.3 0.0
29/01:00pm 25.4 19.5 1.5 21 11.4 ESE 22 39 12 21 1017.2 1016.7 0.0
29/12:30pm 24.9 19.1 2.4 23 10.9 SE 22 33 12 18 1017.5 1017.0 0.0
29/12:00pm 23.8 17.6 2.0 24 10.4 ESE 24 37 13 20 1017.8 1017.3 0.0
29/11:30am 22.4 16.2 2.0 26 9.6 SE 24 35 13 19 1018.3 1017.8 0.0
29/11:00am 22.4 14.8 3.0 28 9.3 ESE 32 41 17 22 1018.3 1017.8 0.0
29/10:30am 21.6 14.8 3.3 30 8.8 ESE 28 39 15 21 1018.4 1017.9 0.0
29/10:00am 20.6 12.9 3.3 32 8.2 ESE 33 43 18 23 1018.4 1017.9 0.0
29/09:30am 20.0 11.7 4.1 35 7.6 ESE 37 46 20 25 1018.3 1017.8 0.0
29/09:00am 18.6 10.5 5.1 41 6.6 ESE 37 46 20 25 1018.4 1017.9 0.0
29/08:30am 16.6 9.5 6.4 51 5.0 ESE 33 43 18 23 1018.4 1017.9 0.0
29/08:00am 15.5 8.7 7.5 59 4.0 ESE 33 43 18 23 1018.2 1017.7 0.0
29/07:30am 14.0 7.3 7.3 64 3.3 SE 32 39 17 21 1017.8 1017.3 0.0
29/07:00am 13.0 6.6 7.0 67 2.9 SE 30 37 16 20 1017.4 1016.9 0.0
29/06:30am 12.5 6.4 6.5 67 2.9 SE 28 35 15 19 1017.1 1016.6 0.0
29/06:00am 13.2 7.2 7.0 66 3.0 SE 28 35 15 19 1016.9 1016.4 0.0
29/05:30am 13.5 7.4 6.6 63 3.3 SE 28 35 15 19 1016.8 1016.3 0.0
29/05:00am 13.9 7.7 6.0 59 3.8 SE 28 35 15 19 1016.6 1016.1 0.0
29/04:30am 14.3 8.4 5.9 57 4.0 SE 26 32 14 17 1016.4 1015.9 0.0
29/04:00am 14.8 8.9 5.9 55 4.3 SE 26 32 14 17 1016.3 1015.8 0.0
29/03:30am 15.4 9.2 6.2 54 4.5 ESE 28 33 15 18 1016.1 1015.6 0.0
29/03:00am 16.0 10.2 6.4 53 4.7 ESE 26 32 14 17 1015.9 1015.4 0.0
29/02:30am 16.6 10.5 6.4 51 5.0 ESE 28 35 15 19 1015.8 1015.3 0.0
29/02:00am 17.2 10.7 6.4 49 5.3 ESE 30 37 16 20 1015.9 1015.4 0.0
29/01:30am 17.9 11.8 6.4 47 5.7 ESE 28 37 15 20 1015.9 1015.4 0.0
29/01:00am 18.7 12.5 6.2 44 6.2 ESE 28 39 15 21 1015.9 1015.4 0.0
29/12:30am 19.7 13.0 5.4 39 7.0 ESE 30 37 16 20 1015.9 1015.4 0.0
29/12:00am 20.6 12.4 5.0 36 7.7 ESE 37 44 20 24 1015.7 1015.2 0.0

Other Formats:

Comma delimited format used in spreadsheet applications
http://www.bom.gov.au/fwo/IDS60801/IDS60801.94690.axf

JavaScript Object Notation format (JSON) in row-major order
http://www.bom.gov.au/fwo/IDS60801/IDS60801.94690.json